createdAt,value
2018-02-12T00:02:12.340Z,84.57
2018-02-12T00:04:40.669Z,84.29
2018-02-12T00:07:09.165Z,84.23
2018-02-12T00:09:37.474Z,84.01
2018-02-12T00:12:05.799Z,83.96
2018-02-12T00:14:34.247Z,83.36
2018-02-12T00:17:03.466Z,83.17
2018-02-12T00:19:31.760Z,82.96
2018-02-12T00:22:00.175Z,83.08
2018-02-12T00:24:29.364Z,82.85
2018-02-12T00:26:57.665Z,82.05
2018-02-12T00:29:25.997Z,82.37
2018-02-12T00:31:54.360Z,80.69
2018-02-12T00:34:23.255Z,80.64
2018-02-12T00:36:51.746Z,81.35
2018-02-12T00:39:20.051Z,80.62
2018-02-12T00:41:48.373Z,80.50
2018-02-12T00:44:17.049Z,79.51
2018-02-12T00:46:45.362Z,79.47
2018-02-12T00:49:13.658Z,78.78
2018-02-12T00:51:42.301Z,79.83
2018-02-12T00:54:10.610Z,80.43
2018-02-12T00:56:39.061Z,79.58
2018-02-12T00:59:07.405Z,79.88
2018-02-12T01:01:35.700Z,79.40
2018-02-12T01:04:05.001Z,79.92
2018-02-12T01:06:33.433Z,79.64
2018-02-12T01:09:01.974Z,79.25
2018-02-12T01:11:30.592Z,79.03
2018-02-12T01:13:58.993Z,79.45
2018-02-12T01:16:27.388Z,78.90
2018-02-12T01:18:55.706Z,79.43
2018-02-12T01:21:23.997Z,79.62
2018-02-12T01:23:52.362Z,79.64
2018-02-12T01:26:20.673Z,79.84
2018-02-12T01:28:49.759Z,79.61
2018-02-12T01:31:18.999Z,80.14
2018-02-12T01:33:47.323Z,80.56
2018-02-12T01:36:15.618Z,79.78
2018-02-12T01:38:44.746Z,80.44
2018-02-12T01:41:13.063Z,80.57
2018-02-12T01:43:41.422Z,81.44
2018-02-12T01:46:09.740Z,81.19
2018-02-12T01:48:38.930Z,81.49
2018-02-12T01:51:08.068Z,81.71
2018-02-12T01:53:36.959Z,81.97
2018-02-12T01:56:05.334Z,82.65
2018-02-12T01:58:33.671Z,82.86
2018-02-12T02:01:02.014Z,82.92
2018-02-12T02:03:30.378Z,83.08
2018-02-12T02:05:58.915Z,83.33
2018-02-12T02:08:27.233Z,83.39
2018-02-12T02:10:55.543Z,83.49
2018-02-12T02:13:23.850Z,83.62
2018-02-12T02:15:52.285Z,83.77
2018-02-12T02:18:20.622Z,83.48
2018-02-12T02:20:48.914Z,83.56
2018-02-12T02:23:17.281Z,84.19
2018-02-12T02:25:45.591Z,84.00
2018-02-12T02:28:14.332Z,83.67
2018-02-12T02:30:42.654Z,83.53
2018-02-12T02:33:10.987Z,83.22
2018-02-12T02:35:39.310Z,83.78
2018-02-12T02:38:07.619Z,83.71
2018-02-12T02:40:35.933Z,83.79
2018-02-12T02:43:04.340Z,83.71
2018-02-12T02:45:32.787Z,83.47
2018-02-12T02:48:01.279Z,83.74
2018-02-12T02:50:29.578Z,84.05
2018-02-12T02:52:57.912Z,83.32
2018-02-12T02:55:26.427Z,83.42
2018-02-12T02:57:55.544Z,83.93
2018-02-12T03:00:24.641Z,83.56
2018-02-12T03:02:53.702Z,83.31
2018-02-12T03:05:22.026Z,83.11
2018-02-12T03:07:50.326Z,83.67
2018-02-12T03:10:18.719Z,83.21
2018-02-12T03:12:47.199Z,82.65
2018-02-12T03:15:23.917Z,82.00
2018-02-12T03:17:52.992Z,82.55
2018-02-12T03:20:21.288Z,82.59
2018-02-12T03:22:50.592Z,81.99
2018-02-12T03:25:19.724Z,82.42
2018-02-12T03:27:48.042Z,82.15
2018-02-12T03:30:16.580Z,81.84
2018-02-12T03:32:44.873Z,81.41
2018-02-12T03:35:13.198Z,81.83
2018-02-12T03:37:41.619Z,81.51
2018-02-12T03:40:09.925Z,81.56
2018-02-12T03:42:38.224Z,81.64
2018-02-12T03:45:07.498Z,82.22
2018-02-12T03:47:35.829Z,81.78
2018-02-12T03:50:04.146Z,81.61
2018-02-12T03:52:33.247Z,81.43
2018-02-12T03:55:01.537Z,81.95
2018-02-12T03:57:30.660Z,82.49
2018-02-12T03:59:59.354Z,82.24
2018-02-12T04:02:27.670Z,82.02
2018-02-12T04:04:56.108Z,82.54
2018-02-12T04:07:24.500Z,82.24
2018-02-12T04:09:52.823Z,82.27
2018-02-12T04:12:21.902Z,81.91
2018-02-12T04:14:50.234Z,82.13
2018-02-12T04:17:18.520Z,82.09
2018-02-12T04:19:46.960Z,81.69
2018-02-12T04:22:16.248Z,82.19
2018-02-12T04:24:45.330Z,81.81
2018-02-12T04:27:13.672Z,81.54
2018-02-12T04:29:42.883Z,82.11
2018-02-12T04:32:11.213Z,82.45
2018-02-12T04:34:39.526Z,82.76
2018-02-12T04:37:07.975Z,82.21
2018-02-12T04:39:36.392Z,82.35
2018-02-12T04:42:04.714Z,82.54
2018-02-12T04:44:33.771Z,82.21
2018-02-12T04:47:02.088Z,83.04
2018-02-12T04:49:30.400Z,83.17
2018-02-12T04:51:58.954Z,83.42
2018-02-12T04:54:28.137Z,83.51
2018-02-12T04:56:56.441Z,83.11
2018-02-12T04:59:24.748Z,84.03
2018-02-12T05:01:53.895Z,83.52
2018-02-12T05:04:22.192Z,83.21
2018-02-12T05:06:50.496Z,83.38
2018-02-12T05:09:18.937Z,83.48
2018-02-12T05:11:47.387Z,83.43
2018-02-12T05:14:16.592Z,83.65
2018-02-12T05:16:45.147Z,83.46
2018-02-12T05:19:13.486Z,83.64
2018-02-12T05:21:41.813Z,83.86
2018-02-12T05:24:11.017Z,84.12
2018-02-12T05:26:39.344Z,84.21
2018-02-12T05:29:07.662Z,83.72
2018-02-12T05:31:36.733Z,83.24
2018-02-12T05:34:05.202Z,82.94
2018-02-12T05:36:33.663Z,83.42
2018-02-12T05:39:02.048Z,83.69
2018-02-12T05:41:30.348Z,83.35
2018-02-12T05:46:33.148Z,83.47
2018-02-12T05:49:01.484Z,83.84
2018-02-12T05:51:29.899Z,83.46
2018-02-12T05:53:59.002Z,83.42
2018-02-12T05:56:27.471Z,83.16
2018-02-12T05:58:55.762Z,82.99
2018-02-12T06:01:24.858Z,83.49
2018-02-12T06:03:53.932Z,83.87
2018-02-12T06:06:22.260Z,83.94
2018-02-12T06:08:50.592Z,83.40
2018-02-12T06:11:18.947Z,83.65
2018-02-12T06:13:47.358Z,83.11
2018-02-12T06:16:16.453Z,83.70
2018-02-12T06:18:45.600Z,83.29
2018-02-12T06:21:13.922Z,83.51
2018-02-12T06:23:43.019Z,83.98
2018-02-12T06:26:12.366Z,84.06
2018-02-12T06:28:40.673Z,83.61
2018-02-12T06:31:10.501Z,83.89
2018-02-12T06:33:39.718Z,83.82
2018-02-12T06:36:08.123Z,83.86
2018-02-12T06:38:36.609Z,83.32
2018-02-12T06:41:04.915Z,83.86
2018-02-12T06:43:34.123Z,84.29
2018-02-12T06:46:02.445Z,84.28
2018-02-12T06:48:30.923Z,84.49
2018-02-12T06:50:59.300Z,83.46
2018-02-12T06:53:27.610Z,83.75
2018-02-12T06:55:55.937Z,83.39
2018-02-12T06:58:24.292Z,83.78
2018-02-12T07:00:53.382Z,83.54
2018-02-12T07:03:22.451Z,83.42
2018-02-12T07:05:50.783Z,82.62
2018-02-12T07:08:19.111Z,82.70
2018-02-12T07:10:47.410Z,82.45
2018-02-12T07:13:16.929Z,82.24
2018-02-12T07:15:45.346Z,81.99
2018-02-12T07:18:13.693Z,82.46
2018-02-12T07:20:42.007Z,82.89
2018-02-12T07:23:10.335Z,83.24
2018-02-12T07:25:39.733Z,83.17
2018-02-12T07:28:08.802Z,83.59
2018-02-12T07:30:37.133Z,83.00
2018-02-12T07:33:05.918Z,83.71
2018-02-12T07:35:34.234Z,83.56
2018-02-12T07:38:02.787Z,83.60
2018-02-12T07:40:31.131Z,83.31
2018-02-12T07:42:59.604Z,82.84
2018-02-12T07:45:28.868Z,82.99
2018-02-12T07:47:58.019Z,81.16
2018-02-12T07:50:26.434Z,84.19
2018-02-12T07:52:56.266Z,83.91
2018-02-12T07:55:24.919Z,83.93
2018-02-12T07:57:53.222Z,84.69
2018-02-12T08:00:21.550Z,84.92
2018-02-12T08:02:50.067Z,85.00
2018-02-12T08:05:18.407Z,84.66
2018-02-12T08:07:46.855Z,85.55
2018-02-12T08:10:15.950Z,85.43
2018-02-12T08:12:44.478Z,85.22
2018-02-12T08:15:12.941Z,86.66
2018-02-12T08:17:41.250Z,86.32
2018-02-12T08:20:09.624Z,88.33
2018-02-12T08:22:37.924Z,88.26
2018-02-12T08:25:06.256Z,88.28
2018-02-12T08:27:34.714Z,88.54
2018-02-12T08:30:03.859Z,88.42
2018-02-12T08:32:37.317Z,87.91
2018-02-12T08:35:05.635Z,87.80
2018-02-12T08:37:34.104Z,87.45
2018-02-12T08:40:02.561Z,86.47
2018-02-12T08:42:31.687Z,87.18
2018-02-12T08:45:00.080Z,86.33
2018-02-12T08:47:29.256Z,86.60
2018-02-12T08:49:58.272Z,86.19
2018-02-12T08:52:27.469Z,86.74
2018-02-12T08:54:56.635Z,87.09
2018-02-12T08:57:25.150Z,87.16
2018-02-12T08:59:54.320Z,86.08
2018-02-12T09:02:22.875Z,85.52
2018-02-12T09:04:51.198Z,84.95
2018-02-12T09:07:20.340Z,85.09
2018-02-12T09:09:49.444Z,84.91
2018-02-12T09:12:17.782Z,84.58
2018-02-12T09:14:46.230Z,83.66
2018-02-12T09:17:14.577Z,84.03
2018-02-12T09:19:42.881Z,83.43
2018-02-12T09:22:11.426Z,81.77
2018-02-12T09:24:39.762Z,80.95
2018-02-12T09:27:08.857Z,79.89
2018-02-12T09:29:37.191Z,80.42
2018-02-12T09:32:05.542Z,78.12
2018-02-12T09:34:33.969Z,79.13
2018-02-12T09:37:03.816Z,78.12
2018-02-12T09:39:32.279Z,78.40
2018-02-12T09:42:00.667Z,78.98
2018-02-12T09:44:29.177Z,76.98
2018-02-12T09:46:57.652Z,77.86
2018-02-12T09:49:26.215Z,77.09
2018-02-12T09:51:54.536Z,77.40
2018-02-12T09:54:23.668Z,75.57
2018-02-12T09:56:52.903Z,75.73
2018-02-12T09:59:21.371Z,76.32
2018-02-12T10:01:49.671Z,75.36
2018-02-12T10:04:18.027Z,73.89
2018-02-12T10:06:46.368Z,76.05
2018-02-12T10:09:15.516Z,73.82
2018-02-12T10:11:43.829Z,73.91
2018-02-12T10:14:12.300Z,74.25
2018-02-12T10:16:40.633Z,73.17
2018-02-12T10:19:09.015Z,72.25
2018-02-12T10:21:37.348Z,72.98
2018-02-12T10:24:05.698Z,72.34
2018-02-12T10:26:34.047Z,72.89
2018-02-12T10:29:02.503Z,71.85
2018-02-12T10:31:31.810Z,71.17
2018-02-12T10:34:00.324Z,71.66
2018-02-12T10:36:28.679Z,72.18
2018-02-12T10:38:57.031Z,72.57
2018-02-12T10:41:25.710Z,71.97
2018-02-12T10:43:54.143Z,72.71
2018-02-12T10:46:22.741Z,72.15
2018-02-12T10:48:51.821Z,73.53
2018-02-12T10:51:20.124Z,74.50
2018-02-12T10:53:48.630Z,74.29
2018-02-12T10:56:16.944Z,74.95
2018-02-12T10:58:45.442Z,74.81
2018-02-12T11:01:14.515Z,76.59
2018-02-12T11:03:42.862Z,76.79
2018-02-12T11:06:11.230Z,76.19
2018-02-12T11:08:39.620Z,75.58
2018-02-12T11:11:07.970Z,73.75
2018-02-12T11:13:37.148Z,73.80
2018-02-12T11:16:05.753Z,73.23
2018-02-12T11:18:34.827Z,72.41
2018-02-12T11:21:03.269Z,71.96
2018-02-12T11:23:31.837Z,70.48
2018-02-12T11:26:00.366Z,71.30
2018-02-12T11:28:28.936Z,68.81
2018-02-12T11:30:58.071Z,68.77
2018-02-12T11:33:27.159Z,67.55
2018-02-12T11:35:55.505Z,68.43
2018-02-12T11:40:51.477Z,68.44
2018-02-12T11:43:19.910Z,66.78
2018-02-12T11:45:48.318Z,67.45
2018-02-12T11:48:17.482Z,65.31
2018-02-12T11:50:45.817Z,65.07
2018-02-12T11:53:14.109Z,65.71
2018-02-12T11:55:42.659Z,65.33
2018-02-12T11:58:12.058Z,66.01
2018-02-12T12:00:40.379Z,65.62
2018-02-12T12:03:08.703Z,65.11
2018-02-12T12:05:37.859Z,64.21
2018-02-12T12:08:06.319Z,64.14
2018-02-12T12:10:34.867Z,62.78
2018-02-12T12:13:03.976Z,63.66
2018-02-12T12:15:32.530Z,62.63
2018-02-12T12:18:01.158Z,61.12
2018-02-12T12:20:29.500Z,60.38
2018-02-12T12:22:59.052Z,59.59
2018-02-12T12:25:27.392Z,61.97
2018-02-12T12:27:56.548Z,61.72
2018-02-12T12:30:24.925Z,60.95
2018-02-12T12:32:53.255Z,60.58
2018-02-12T12:35:21.593Z,61.57
2018-02-12T12:37:49.994Z,58.31
2018-02-12T12:40:18.309Z,60.17
2018-02-12T12:42:46.712Z,61.05
2018-02-12T12:45:16.689Z,58.81
2018-02-12T12:47:45.145Z,57.15
2018-02-12T12:50:14.236Z,56.56
2018-02-12T12:52:42.600Z,56.56
2018-02-12T12:55:11.705Z,54.37
2018-02-12T12:57:40.948Z,54.34
2018-02-12T13:00:09.521Z,55.21
2018-02-12T13:02:37.868Z,58.69
2018-02-12T13:05:06.964Z,60.61
2018-02-12T13:07:36.106Z,59.85
2018-02-12T13:10:04.493Z,60.53
2018-02-12T13:12:33.867Z,61.59
2018-02-12T13:15:02.959Z,62.69
2018-02-12T13:17:31.284Z,62.54
2018-02-12T13:20:00.379Z,61.42
2018-02-12T13:22:29.599Z,60.10
2018-02-12T13:24:58.018Z,60.93
2018-02-12T13:27:26.394Z,60.10
2018-02-12T13:29:54.732Z,60.67
2018-02-12T13:32:23.073Z,57.82
2018-02-12T13:34:51.539Z,56.96
2018-02-12T13:37:20.072Z,56.13
2018-02-12T13:39:48.386Z,53.61
2018-02-12T13:42:16.803Z,51.48
2018-02-12T13:44:47.866Z,53.21
2018-02-12T13:47:16.467Z,53.82
2018-02-12T13:49:45.567Z,55.29
2018-02-12T13:52:13.880Z,53.86
2018-02-12T13:54:42.227Z,55.19
2018-02-12T13:57:10.585Z,56.57
2018-02-12T13:59:39.073Z,54.40
2018-02-12T14:02:07.438Z,54.77
2018-02-12T14:04:35.815Z,53.88
2018-02-12T14:07:04.361Z,52.77
2018-02-12T14:09:32.673Z,52.37
2018-02-12T14:12:00.985Z,49.30
2018-02-12T14:14:29.294Z,48.73
2018-02-12T14:16:58.420Z,47.24
2018-02-12T14:19:26.901Z,47.80
2018-02-12T14:21:55.390Z,47.26
2018-02-12T14:24:23.738Z,47.13
2018-02-12T14:26:52.101Z,45.43
2018-02-12T14:29:21.450Z,45.17
2018-02-12T14:31:49.763Z,46.12
2018-02-12T14:34:18.214Z,46.82
2018-02-12T14:36:46.544Z,49.68
2018-02-12T14:39:15.290Z,50.35
2018-02-12T14:41:43.635Z,48.74
2018-02-12T14:44:12.055Z,51.22
2018-02-12T14:46:40.381Z,51.57
2018-02-12T14:49:08.703Z,51.34
2018-02-12T14:51:37.222Z,50.03
2018-02-12T14:54:05.609Z,49.75
2018-02-12T14:56:34.056Z,49.79
2018-02-12T14:59:02.560Z,48.94
2018-02-12T15:01:30.871Z,49.22
2018-02-12T15:03:59.747Z,49.31
2018-02-12T15:06:28.552Z,49.95
2018-02-12T15:08:57.051Z,52.07
2018-02-12T15:11:25.952Z,53.60
2018-02-12T15:13:54.476Z,53.92
2018-02-12T15:16:22.944Z,52.22
2018-02-12T15:18:51.475Z,50.31
2018-02-12T15:21:20.595Z,50.66
2018-02-12T15:23:50.402Z,50.51
2018-02-12T15:26:18.957Z,50.80
2018-02-12T15:28:48.580Z,49.81
2018-02-12T15:31:17.774Z,50.16
2018-02-12T15:33:47.218Z,51.23
2018-02-12T15:36:16.238Z,52.62
2018-02-12T15:38:44.618Z,53.27
2018-02-12T15:41:13.580Z,55.18
2018-02-12T15:43:42.762Z,53.51
2018-02-12T15:46:11.595Z,54.13
2018-02-12T15:48:40.139Z,53.91
2018-02-12T15:51:08.558Z,54.46
2018-02-12T15:53:37.242Z,54.71
2018-02-12T15:56:05.561Z,55.47
2018-02-12T15:58:35.429Z,55.82
2018-02-12T16:01:03.890Z,56.20
2018-02-12T16:03:32.365Z,55.69
2018-02-12T16:06:01.570Z,56.91
2018-02-12T16:08:30.041Z,56.53
2018-02-12T16:10:58.462Z,57.58
2018-02-12T16:13:26.978Z,56.38
2018-02-12T16:15:55.523Z,55.42
2018-02-12T16:18:23.972Z,54.94
2018-02-12T16:20:52.443Z,55.49
2018-02-12T16:23:20.785Z,56.14
2018-02-12T16:25:49.207Z,55.69
2018-02-12T16:28:17.625Z,56.02
2018-02-12T16:30:47.448Z,56.13
2018-02-12T16:33:16.654Z,56.95
2018-02-12T16:35:45.211Z,57.20
2018-02-12T16:38:13.925Z,56.06
2018-02-12T16:40:42.545Z,56.61
2018-02-12T16:43:11.048Z,54.97
2018-02-12T16:45:39.437Z,54.76
2018-02-12T16:48:07.837Z,56.37
2018-02-12T16:50:36.783Z,55.06
2018-02-12T16:53:05.158Z,56.04
2018-02-12T16:55:33.540Z,57.52
2018-02-12T16:58:02.096Z,57.16
2018-02-12T17:00:30.425Z,57.83
2018-02-12T17:02:59.979Z,57.65
2018-02-12T17:05:28.338Z,56.83
2018-02-12T17:07:56.663Z,57.17
2018-02-12T17:10:25.840Z,58.12
2018-02-12T17:12:54.324Z,57.57
2018-02-12T17:15:22.644Z,56.55
2018-02-12T17:17:50.974Z,57.29
2018-02-12T17:20:19.315Z,58.62
2018-02-12T17:22:47.950Z,57.59
2018-02-12T17:25:16.336Z,59.08
2018-02-12T17:27:44.678Z,59.60
2018-02-12T17:30:13.084Z,58.66
2018-02-12T17:32:41.434Z,57.86
2018-02-12T17:35:09.760Z,58.65
2018-02-12T17:37:38.088Z,59.69
2018-02-12T17:40:06.813Z,59.92
2018-02-12T17:42:35.154Z,58.94
2018-02-12T17:45:03.483Z,59.55
2018-02-12T17:47:32.728Z,58.87
2018-02-12T17:50:01.252Z,60.54
2018-02-12T17:52:29.589Z,60.47
2018-02-12T17:54:57.950Z,59.73
2018-02-12T17:57:26.497Z,60.02
2018-02-12T17:59:56.246Z,61.14
2018-02-12T18:02:25.449Z,62.38
2018-02-12T18:04:54.437Z,64.01
2018-02-12T18:07:23.704Z,64.38
2018-02-12T18:09:52.529Z,64.53
2018-02-12T18:12:22.326Z,66.02
2018-02-12T18:14:51.267Z,65.13
2018-02-12T18:17:20.180Z,67.62
2018-02-12T18:19:49.325Z,64.46
2018-02-12T18:22:18.147Z,68.05
2018-02-12T18:24:50.825Z,66.80
2018-02-12T18:27:19.878Z,67.53
2018-02-12T18:29:48.353Z,66.15
2018-02-12T18:32:18.857Z,67.06
2018-02-12T18:34:47.484Z,66.51
2018-02-12T18:37:16.196Z,66.07
2018-02-12T18:39:45.845Z,65.44
2018-02-12T18:42:14.709Z,66.34
2018-02-12T18:44:44.802Z,68.27
2018-02-12T18:47:13.479Z,68.63
2018-02-12T18:49:42.080Z,69.88
2018-02-12T18:52:11.594Z,65.92
2018-02-12T18:54:40.039Z,67.28
2018-02-12T18:57:08.870Z,68.42
2018-02-12T18:59:37.809Z,67.09
2018-02-12T19:02:06.433Z,68.18
2018-02-12T19:04:35.816Z,70.11
2018-02-12T19:07:04.550Z,68.56
2018-02-12T19:09:33.208Z,67.77
2018-02-12T19:12:01.985Z,69.50
2018-02-12T19:14:31.426Z,68.57
2018-02-12T19:17:05.209Z,67.76
2018-02-12T19:19:33.904Z,69.03
2018-02-12T19:22:03.064Z,69.16
2018-02-12T19:24:31.997Z,69.38
2018-02-12T19:27:00.639Z,69.49
2018-02-12T19:29:29.970Z,69.75
2018-02-12T19:31:59.079Z,69.11
2018-02-12T19:34:27.963Z,69.52
2018-02-12T19:36:58.784Z,69.59
2018-02-12T19:39:27.630Z,69.52
2018-02-12T19:41:56.551Z,69.80
2018-02-12T19:44:26.609Z,70.43
2018-02-12T19:46:56.018Z,70.24
2018-02-12T19:49:25.560Z,70.86
2018-02-12T19:51:55.693Z,70.16
2018-02-12T19:54:25.211Z,69.39
2018-02-12T19:56:53.992Z,69.41
2018-02-12T19:59:23.318Z,70.20
2018-02-12T20:01:53.125Z,70.19
2018-02-12T20:04:23.777Z,70.66
2018-02-12T20:06:54.088Z,71.92
2018-02-12T20:09:23.348Z,71.20
2018-02-12T20:11:52.458Z,71.32
2018-02-12T20:14:22.085Z,71.31
2018-02-12T20:16:50.876Z,71.25
2018-02-12T20:19:20.676Z,71.07
2018-02-12T20:21:50.699Z,71.95
2018-02-12T20:24:20.278Z,71.54
2018-02-12T20:26:49.451Z,71.97
2018-02-12T20:29:18.349Z,72.22
2018-02-12T20:31:47.024Z,72.52
2018-02-12T20:34:15.633Z,72.09
2018-02-12T20:36:44.332Z,71.92
2018-02-12T20:39:17.966Z,71.74
2018-02-12T20:41:47.035Z,71.44
2018-02-12T20:44:16.454Z,71.77
2018-02-12T20:46:45.214Z,71.56
2018-02-12T20:49:14.095Z,71.89
2018-02-12T20:51:42.559Z,71.89
2018-02-12T20:54:11.142Z,72.28
2018-02-12T20:56:39.826Z,71.81
2018-02-12T20:59:08.785Z,71.86
2018-02-12T21:01:37.896Z,70.96
2018-02-12T21:04:06.924Z,71.61
2018-02-12T21:06:35.446Z,72.28
2018-02-12T21:09:03.939Z,72.70
2018-02-12T21:11:32.779Z,72.39
2018-02-12T21:14:01.237Z,73.49
2018-02-12T21:16:30.658Z,73.16
2018-02-12T21:18:59.545Z,73.42
2018-02-12T21:21:28.666Z,72.83
2018-02-12T21:23:57.440Z,71.65
2018-02-12T21:26:26.219Z,71.47
2018-02-12T21:28:54.990Z,71.57
2018-02-12T21:31:23.762Z,71.84
2018-02-12T21:33:52.732Z,71.70
2018-02-12T21:36:22.290Z,72.33
2018-02-12T21:38:51.064Z,72.12
2018-02-12T21:41:20.275Z,71.92
2018-02-12T21:43:48.955Z,72.25
2018-02-12T21:46:18.255Z,71.80
2018-02-12T21:48:46.792Z,72.03
2018-02-12T21:51:15.563Z,72.56
2018-02-12T21:53:44.111Z,72.46
2018-02-12T21:56:13.201Z,72.75
2018-02-12T21:58:42.911Z,72.58
2018-02-12T22:03:46.149Z,74.09
2018-02-12T22:06:15.877Z,74.29
2018-02-12T22:08:44.660Z,74.73
2018-02-12T22:11:14.047Z,74.08
2018-02-12T22:13:43.264Z,74.32
2018-02-12T22:16:11.653Z,74.91
2018-02-12T22:18:40.190Z,74.71
2018-02-12T22:21:08.524Z,74.91
2018-02-12T22:23:36.859Z,74.87
2018-02-12T22:26:05.208Z,73.90
2018-02-12T22:28:33.692Z,73.71
2018-02-12T22:31:02.169Z,73.93
2018-02-12T22:33:30.688Z,73.41
2018-02-12T22:35:59.113Z,73.06
2018-02-12T22:38:27.585Z,73.10
2018-02-12T22:40:55.894Z,72.94
2018-02-12T22:43:24.247Z,72.58
2018-02-12T22:45:52.572Z,72.26
2018-02-12T22:48:21.008Z,73.15
2018-02-12T22:50:49.386Z,73.58
2018-02-12T22:53:17.746Z,73.66
2018-02-12T22:55:46.093Z,72.86
2018-02-12T22:58:15.170Z,72.76
2018-02-12T23:00:44.315Z,73.12
2018-02-12T23:03:12.661Z,72.91
2018-02-12T23:05:41.737Z,73.15
2018-02-12T23:08:11.046Z,73.06
2018-02-12T23:10:39.535Z,73.25
2018-02-12T23:13:07.916Z,73.66
2018-02-12T23:15:37.016Z,73.56
2018-02-12T23:18:06.138Z,73.80
2018-02-12T23:20:34.478Z,73.58
2018-02-12T23:23:02.807Z,73.27
2018-02-12T23:25:31.185Z,72.99
2018-02-12T23:27:59.496Z,73.59
2018-02-12T23:30:28.792Z,73.44
2018-02-12T23:32:58.070Z,73.45
2018-02-12T23:35:26.624Z,73.05
2018-02-12T23:37:54.943Z,73.04
2018-02-12T23:40:24.106Z,72.50
2018-02-12T23:42:52.467Z,72.72
2018-02-12T23:45:20.773Z,72.66
2018-02-12T23:47:49.126Z,72.60
2018-02-12T23:50:17.539Z,72.37
2018-02-12T23:52:45.997Z,72.34
2018-02-12T23:55:14.563Z,72.59
2018-02-12T23:57:42.900Z,72.49
